Time;durP1;ratioP1;P1;durP2;ratioP2;P2;SDS_P1;SDS_P2;PMS_P1;PMS_P2;Temp;Humidity;BMP_temperature;BMP_pressure;BME280_temperature;BME280_humidity;BME280_pressure;Samples;Min_cycle;Max_cycle;Signal;HPM_P1;HPM_P2
2023/05/13 00:01:40;;;;;;;50.55;20.25;;;;;;;;;;6212510;23;20005;-78
2023/05/13 00:04:06;;;;;;;46.80;19.50;;;;;;;;;;6213180;23;20013;-78
2023/05/13 00:06:32;;;;;;;51.47;20.50;;;;;;;;;;6212857;23;20009;-78
2023/05/13 00:08:58;;;;;;;50.03;19.80;;;;;;;;;;6213776;23;20436;-79
2023/05/13 00:11:23;;;;;;;51.03;19.98;;;;;;;;;;6213948;23;20005;-78
2023/05/13 00:13:49;;;;;;;44.35;18.05;;;;;;;;;;6212794;23;20408;-78
2023/05/13 00:16:14;;;;;;;46.20;19.90;;;;;;;;;;6213007;23;20082;-79
2023/05/13 00:18:40;;;;;;;43.97;18.75;;;;;;;;;;6212488;23;20004;-78
2023/05/13 00:21:05;;;;;;;51.88;19.33;;;;;;;;;;6162425;23;20008;-78
2023/05/13 00:23:31;;;;;;;52.60;18.67;;;;;;;;;;6211034;23;20001;-78
2023/05/13 00:25:57;;;;;;;44.05;17.55;;;;;;;;;;6212384;23;20443;-78
2023/05/13 00:28:23;;;;;;;42.05;17.92;;;;;;;;;;6187366;23;20439;-78
2023/05/13 00:30:48;;;;;;;42.67;17.70;;;;;;;;;;6212096;23;20004;-77
2023/05/13 00:33:14;;;;;;;45.53;17.35;;;;;;;;;;6213746;23;20075;-77
2023/05/13 00:35:39;;;;;;;40.97;17.60;;;;;;;;;;6212244;23;20083;-78
2023/05/13 00:38:05;;;;;;;40.83;17.55;;;;;;;;;;6213853;23;20333;-78
2023/05/13 00:40:31;;;;;;;42.78;17.70;;;;;;;;;;6187519;23;20005;-78
2023/05/13 00:42:57;;;;;;;45.78;17.45;;;;;;;;;;6187240;23;20428;-79
2023/05/13 00:45:22;;;;;;;41.95;16.92;;;;;;;;;;6211820;23;20004;-79
2023/05/13 00:47:48;;;;;;;40.25;18.35;;;;;;;;;;6212512;23;20352;-79
2023/05/13 00:50:13;;;;;;;48.10;18.35;;;;;;;;;;6186963;23;20007;-78
2023/05/13 00:52:40;;;;;;;44.75;17.63;;;;;;;;;;6162352;23;20012;-79
2023/05/13 00:55:06;;;;;;;39.80;17.08;;;;;;;;;;6187259;23;20024;-79
2023/05/13 00:57:32;;;;;;;43.67;17.27;;;;;;;;;;6187144;23;20012;-79
2023/05/13 00:59:57;;;;;;;42.05;17.52;;;;;;;;;;6186770;23;19996;-78
2023/05/13 01:02:29;;;;;;;45.38;18.17;;;;;;;;;;6162078;23;20412;-78
2023/05/13 01:05:06;;;;;;;44.75;18.42;;;;;;;;;;6212398;23;20005;-79
2023/05/13 01:07:50;;;;;;;45.72;17.92;;;;;;;;;;6213216;23;20008;-78
2023/05/13 01:10:30;;;;;;;47.03;19.80;;;;;;;;;;6213584;23;20000;-78
2023/05/13 01:12:57;;;;;;;49.90;19.10;;;;;;;;;;6213131;23;20028;-78
2023/05/13 01:15:24;;;;;;;53.42;19.23;;;;;;;;;;6187436;23;20004;-78
2023/05/13 01:18:09;;;;;;;54.78;20.30;;;;;;;;;;6187150;23;20010;-79
2023/05/13 01:20:34;;;;;;;51.15;19.33;;;;;;;;;;6211999;23;20007;-78
2023/05/13 01:23:00;;;;;;;52.45;20.95;;;;;;;;;;6187089;23;20013;-79
2023/05/13 01:25:25;;;;;;;51.15;19.27;;;;;;;;;;6212082;23;20001;-79
2023/05/13 01:27:51;;;;;;;42.95;18.05;;;;;;;;;;6211647;23;20000;-79
2023/05/13 01:30:17;;;;;;;44.40;19.95;;;;;;;;;;6212479;23;20035;-79
2023/05/13 01:32:42;;;;;;;49.05;19.95;;;;;;;;;;6212270;23;20358;-78
2023/05/13 01:35:08;;;;;;;50.28;21.27;;;;;;;;;;6162282;23;20051;-78
2023/05/13 01:37:33;;;;;;;43.00;18.65;;;;;;;;;;6211994;23;20443;-78
2023/05/13 01:39:59;;;;;;;42.15;17.40;;;;;;;;;;6212149;23;20043;-78
2023/05/13 01:42:25;;;;;;;43.78;18.42;;;;;;;;;;6211724;23;20035;-78
2023/05/13 01:44:51;;;;;;;43.45;18.25;;;;;;;;;;6187103;23;20001;-78
2023/05/13 01:47:16;;;;;;;46.95;17.95;;;;;;;;;;6211717;23;20009;-79
2023/05/13 01:49:42;;;;;;;47.83;18.63;;;;;;;;;;6187206;23;20347;-78
2023/05/13 01:52:07;;;;;;;46.03;19.27;;;;;;;;;;6212180;23;20416;-79
2023/05/13 01:54:32;;;;;;;48.40;19.63;;;;;;;;;;6186829;23;20034;-79
2023/05/13 01:56:58;;;;;;;55.15;19.95;;;;;;;;;;6213043;23;20079;-79
2023/05/13 01:59:23;;;;;;;54.28;20.27;;;;;;;;;;6211995;23;20107;-77
2023/05/13 02:01:49;;;;;;;44.55;18.80;;;;;;;;;;6214175;23;20071;-79
2023/05/13 02:04:14;;;;;;;55.58;19.10;;;;;;;;;;6215257;23;20001;-79
2023/05/13 02:06:39;;;;;;;50.53;20.17;;;;;;;;;;6213572;23;20088;-78
2023/05/13 02:09:05;;;;;;;45.55;18.45;;;;;;;;;;6215015;23;20051;-78
2023/05/13 02:11:31;;;;;;;45.35;18.20;;;;;;;;;;6213403;23;20424;-78
2023/05/13 02:13:56;;;;;;;48.35;18.33;;;;;;;;;;6212928;23;20083;-78
2023/05/13 02:16:21;;;;;;;52.47;18.13;;;;;;;;;;6164129;23;20039;-78
2023/05/13 02:18:47;;;;;;;49.72;19.52;;;;;;;;;;6215165;23;20005;-77
2023/05/13 02:21:12;;;;;;;52.53;20.52;;;;;;;;;;6213801;23;20055;-79
2023/05/13 02:23:38;;;;;;;48.70;19.45;;;;;;;;;;6215053;23;20075;-79
2023/05/13 02:26:03;;;;;;;49.78;19.27;;;;;;;;;;6214633;23;20005;-78
2023/05/13 02:28:28;;;;;;;44.65;19.70;;;;;;;;;;6213592;23;20351;-78
2023/05/13 02:30:54;;;;;;;46.53;18.85;;;;;;;;;;6214944;23;20088;-78
2023/05/13 02:33:19;;;;;;;46.45;18.75;;;;;;;;;;6213490;23;20079;-78
2023/05/13 02:35:45;;;;;;;43.35;19.13;;;;;;;;;;6215203;23;20408;-77
2023/05/13 02:38:10;;;;;;;41.35;17.88;;;;;;;;;;6188649;23;20094;-78
2023/05/13 02:40:36;;;;;;;44.28;18.02;;;;;;;;;;6188314;23;20054;-78
2023/05/13 02:43:01;;;;;;;46.67;17.83;;;;;;;;;;6214996;23;20103;-78
2023/05/13 02:45:27;;;;;;;43.20;18.75;;;;;;;;;;6213597;23;20066;-77
2023/05/13 02:47:52;;;;;;;41.80;18.77;;;;;;;;;;6213829;23;20005;-78
2023/05/13 02:50:17;;;;;;;46.10;19.40;;;;;;;;;;6188545;23;20005;-78
2023/05/13 02:52:43;;;;;;;51.30;20.60;;;;;;;;;;6163492;23;20094;-78
2023/05/13 02:55:09;;;;;;;52.88;19.88;;;;;;;;;;6214460;23;20001;-77
2023/05/13 02:57:35;;;;;;;45.58;19.33;;;;;;;;;;6213508;23;20007;-77
2023/05/13 03:00:01;;;;;;;48.85;21.15;;;;;;;;;;6213484;23;20336;-78
2023/05/13 03:02:27;;;;;;;47.03;19.45;;;;;;;;;;6213250;23;20008;-77
2023/05/13 03:04:53;;;;;;;52.75;19.80;;;;;;;;;;6213103;23;20095;-78
2023/05/13 03:07:19;;;;;;;46.10;19.73;;;;;;;;;;6214400;23;20491;-78
2023/05/13 03:09:45;;;;;;;45.13;19.98;;;;;;;;;;6214338;23;20052;-78
2023/05/13 03:12:10;;;;;;;44.85;19.80;;;;;;;;;;6212856;23;20004;-78
2023/05/13 03:14:36;;;;;;;56.17;20.98;;;;;;;;;;6213404;23;20001;-78
2023/05/13 03:17:07;;;;;;;49.60;20.45;;;;;;;;;;6214677;23;20427;-78
2023/05/13 03:19:34;;;;;;;46.53;19.38;;;;;;;;;;6213049;23;19997;-78
2023/05/13 03:21:59;;;;;;;53.03;20.85;;;;;;;;;;6188388;23;20008;-78
2023/05/13 03:24:25;;;;;;;51.22;19.67;;;;;;;;;;6212643;23;20007;-78
2023/05/13 03:26:50;;;;;;;44.38;18.88;;;;;;;;;;6214667;23;20044;-78
2023/05/13 03:29:16;;;;;;;57.40;20.48;;;;;;;;;;6212886;23;20084;-78
2023/05/13 03:31:41;;;;;;;56.15;21.20;;;;;;;;;;6214376;23;20036;-78
2023/05/13 03:34:07;;;;;;;48.90;19.88;;;;;;;;;;6214458;23;19997;-78
2023/05/13 03:36:32;;;;;;;51.70;20.23;;;;;;;;;;6214525;23;20001;-78
2023/05/13 03:38:57;;;;;;;51.25;20.80;;;;;;;;;;6212460;23;20050;-79
2023/05/13 03:41:23;;;;;;;49.33;20.20;;;;;;;;;;6187787;23;20001;-78
2023/05/13 03:43:48;;;;;;;49.00;20.90;;;;;;;;;;6214203;23;20110;-77
2023/05/13 03:46:14;;;;;;;50.00;20.02;;;;;;;;;;6187556;23;20000;-78
2023/05/13 03:48:39;;;;;;;40.17;18.45;;;;;;;;;;6214018;23;20358;-78
2023/05/13 03:51:05;;;;;;;50.72;19.95;;;;;;;;;;6212617;23;20005;-78
2023/05/13 03:53:30;;;;;;;50.03;20.38;;;;;;;;;;6212210;23;20032;-78
2023/05/13 03:55:56;;;;;;;46.60;19.88;;;;;;;;;;6214220;23;20015;-78
2023/05/13 03:58:21;;;;;;;48.72;19.50;;;;;;;;;;6187704;23;20009;-78
2023/05/13 04:00:47;;;;;;;50.95;19.13;;;;;;;;;;6214105;23;20360;-79
2023/05/13 04:03:16;;;;;;;49.08;20.48;;;;;;;;;;6212555;23;20004;-78
2023/05/13 04:05:42;;;;;;;50.05;20.17;;;;;;;;;;6162840;23;20009;-78
2023/05/13 04:08:07;;;;;;;58.85;21.55;;;;;;;;;;6187316;23;20094;-79
2023/05/13 04:10:32;;;;;;;64.22;22.25;;;;;;;;;;6214101;23;20116;-78
2023/05/13 04:12:58;;;;;;;58.88;22.00;;;;;;;;;;6187371;23;20004;-77
2023/05/13 04:15:23;;;;;;;71.07;20.77;;;;;;;;;;6215534;23;20012;-78
2023/05/13 04:17:49;;;;;;;50.85;20.17;;;;;;;;;;6214793;23;20450;-78
2023/05/13 04:20:15;;;;;;;45.50;19.27;;;;;;;;;;6188566;23;20009;-78
2023/05/13 04:22:40;;;;;;;51.20;20.08;;;;;;;;;;6214823;23;20070;-78
2023/05/13 04:25:06;;;;;;;59.78;21.38;;;;;;;;;;6213047;23;20062;-78
2023/05/13 04:27:31;;;;;;;54.35;20.85;;;;;;;;;;6187768;23;20005;-78
2023/05/13 04:29:57;;;;;;;49.70;20.98;;;;;;;;;;6213891;23;20351;-77
2023/05/13 04:32:22;;;;;;;44.75;20.05;;;;;;;;;;6212480;23;20011;-78
2023/05/13 04:34:48;;;;;;;47.67;19.67;;;;;;;;;;6212388;23;20008;-77
2023/05/13 04:37:13;;;;;;;51.55;20.33;;;;;;;;;;6186912;23;20062;-77
2023/05/13 04:39:39;;;;;;;41.15;17.23;;;;;;;;;;6162595;23;20001;-77
2023/05/13 04:42:05;;;;;;;42.75;16.85;;;;;;;;;;6213712;23;20079;-77
2023/05/13 04:44:31;;;;;;;46.33;17.92;;;;;;;;;;6213886;23;20080;-77
2023/05/13 04:46:56;;;;;;;46.22;17.98;;;;;;;;;;6212668;23;20009;-77
2023/05/13 04:49:22;;;;;;;44.42;18.20;;;;;;;;;;6212423;23;20348;-77
2023/05/13 04:51:47;;;;;;;35.63;16.88;;;;;;;;;;6213152;23;20004;-78
2023/05/13 04:54:13;;;;;;;39.00;17.35;;;;;;;;;;6213681;23;20007;-78
2023/05/13 04:56:38;;;;;;;52.45;17.70;;;;;;;;;;6211896;23;20009;-78
2023/05/13 04:59:04;;;;;;;38.17;16.85;;;;;;;;;;6212345;23;20027;-77
2023/05/13 05:01:29;;;;;;;45.83;17.58;;;;;;;;;;6213543;23;20458;-78
2023/05/13 05:03:56;;;;;;;44.20;18.00;;;;;;;;;;6213675;23;20011;-77
2023/05/13 05:06:22;;;;;;;46.25;17.83;;;;;;;;;;6186565;23;20343;-77
2023/05/13 05:08:47;;;;;;;37.53;16.52;;;;;;;;;;6213788;23;20048;-78
2023/05/13 05:11:12;;;;;;;41.28;17.45;;;;;;;;;;6211708;23;20076;-76
2023/05/13 05:13:38;;;;;;;34.38;16.70;;;;;;;;;;6213543;23;20317;-77
2023/05/13 05:16:03;;;;;;;32.85;16.20;;;;;;;;;;6186410;23;20012;-77
2023/05/13 05:18:29;;;;;;;37.38;16.20;;;;;;;;;;6213532;23;20004;-77
2023/05/13 05:20:54;;;;;;;33.47;16.15;;;;;;;;;;6213091;23;20011;-78
2023/05/13 05:23:20;;;;;;;37.60;15.70;;;;;;;;;;6186358;23;20001;-77
2023/05/13 05:25:45;;;;;;;32.10;13.98;;;;;;;;;;6212810;23;20039;-76
2023/05/13 05:28:11;;;;;;;34.22;14.35;;;;;;;;;;6212989;23;20004;-77
2023/05/13 05:30:38;;;;;;;32.08;14.90;;;;;;;;;;6211478;23;20016;-76
2023/05/13 05:33:05;;;;;;;31.70;14.25;;;;;;;;;;6210526;23;20020;-78
2023/05/13 05:35:32;;;;;;;33.33;14.98;;;;;;;;;;6212603;23;20005;-78
2023/05/13 05:37:57;;;;;;;36.80;14.23;;;;;;;;;;6211900;23;20431;-78
2023/05/13 05:40:23;;;;;;;30.75;13.52;;;;;;;;;;6188397;23;20043;-78
2023/05/13 05:42:48;;;;;;;27.55;13.60;;;;;;;;;;6214373;23;20400;-78
2023/05/13 05:45:13;;;;;;;34.55;14.43;;;;;;;;;;6214506;23;20005;-78
2023/05/13 05:47:39;;;;;;;41.97;15.27;;;;;;;;;;6213399;23;20005;-77
2023/05/13 05:50:07;;;;;;;41.28;15.00;;;;;;;;;;6211250;23;20043;-78
2023/05/13 05:52:32;;;;;;;33.10;13.98;;;;;;;;;;6213546;23;20001;-78
2023/05/13 05:54:58;;;;;;;34.65;13.52;;;;;;;;;;6212392;23;20066;-78
2023/05/13 05:57:23;;;;;;;31.80;14.35;;;;;;;;;;6209707;23;20351;-78
2023/05/13 05:59:49;;;;;;;33.28;14.77;;;;;;;;;;6210183;23;20008;-77
2023/05/13 06:02:15;;;;;;;33.60;14.38;;;;;;;;;;6160554;23;20082;-78
2023/05/13 06:04:40;;;;;;;31.75;13.48;;;;;;;;;;6159861;23;20357;-78
2023/05/13 06:07:07;;;;;;;30.23;13.77;;;;;;;;;;6211282;23;20426;-78
2023/05/13 06:09:32;;;;;;;28.38;14.15;;;;;;;;;;6211034;23;20012;-78
2023/05/13 06:11:57;;;;;;;27.63;14.05;;;;;;;;;;6211227;23;20396;-78
2023/05/13 06:14:23;;;;;;;21.30;11.52;;;;;;;;;;6212839;23;19997;-78
2023/05/13 06:16:48;;;;;;;18.80;10.18;;;;;;;;;;6213234;23;20004;-79
2023/05/13 06:19:14;;;;;;;20.08;9.65;;;;;;;;;;6213686;23;19997;-78
2023/05/13 06:21:41;;;;;;;28.13;10.05;;;;;;;;;;6215064;23;20483;-79
2023/05/13 06:24:07;;;;;;;22.63;9.57;;;;;;;;;;6216233;23;20007;-80
2023/05/13 06:26:33;;;;;;;22.00;9.73;;;;;;;;;;6213693;23;20419;-79
2023/05/13 06:28:59;;;;;;;21.08;10.20;;;;;;;;;;6187602;23;20383;-79
2023/05/13 06:31:25;;;;;;;20.65;9.70;;;;;;;;;;6215167;23;20474;-79
2023/05/13 06:33:50;;;;;;;25.13;10.00;;;;;;;;;;6163013;23;20004;-80
2023/05/13 06:36:15;;;;;;;30.25;10.30;;;;;;;;;;6188329;23;20428;-79
2023/05/13 06:38:41;;;;;;;19.58;8.73;;;;;;;;;;6213139;23;19996;-77
2023/05/13 06:41:07;;;;;;;24.70;10.60;;;;;;;;;;6214826;23;20016;-79
2023/05/13 06:43:32;;;;;;;18.60;9.13;;;;;;;;;;6187914;23;20445;-79
2023/05/13 06:45:58;;;;;;;23.42;9.63;;;;;;;;;;6163026;23;20386;-80
2023/05/13 06:48:24;;;;;;;20.95;9.57;;;;;;;;;;6187529;23;20003;-80
2023/05/13 06:50:49;;;;;;;18.55;9.30;;;;;;;;;;6213097;23;20009;-79
2023/05/13 06:53:15;;;;;;;18.40;10.13;;;;;;;;;;6214323;23;20426;-79
2023/05/13 06:55:41;;;;;;;20.00;9.82;;;;;;;;;;6211718;23;20004;-79
2023/05/13 06:58:08;;;;;;;21.30;9.50;;;;;;;;;;6213498;23;20005;-78
2023/05/13 07:00:37;;;;;;;20.17;9.45;;;;;;;;;;6187203;23;20008;-79
2023/05/13 07:03:04;;;;;;;18.45;9.13;;;;;;;;;;6210798;23;20091;-79
2023/05/13 07:05:30;;;;;;;21.25;9.02;;;;;;;;;;6184780;23;20372;-77
2023/05/13 07:07:56;;;;;;;19.08;8.77;;;;;;;;;;6211822;23;20095;-78
2023/05/13 07:10:21;;;;;;;17.20;8.73;;;;;;;;;;6211226;23;20040;-77
2023/05/13 07:12:47;;;;;;;20.17;8.82;;;;;;;;;;6209119;23;20000;-79
2023/05/13 07:15:12;;;;;;;21.38;8.90;;;;;;;;;;6210583;23;20005;-78
2023/05/13 07:17:38;;;;;;;20.08;8.07;;;;;;;;;;6209815;23;20327;-78
2023/05/13 07:20:04;;;;;;;14.13;7.53;;;;;;;;;;6184676;23;20004;-78
2023/05/13 07:22:29;;;;;;;16.13;7.72;;;;;;;;;;6184946;23;20344;-77
2023/05/13 07:24:55;;;;;;;23.77;7.53;;;;;;;;;;6211630;23;20012;-78
2023/05/13 07:27:21;;;;;;;14.38;7.13;;;;;;;;;;6209495;23;20011;-78
2023/05/13 07:29:46;;;;;;;17.88;7.03;;;;;;;;;;6209805;23;20015;-79
2023/05/13 07:32:12;;;;;;;16.80;6.97;;;;;;;;;;6212926;23;20009;-79
2023/05/13 07:34:37;;;;;;;13.43;6.85;;;;;;;;;;6211924;23;20004;-79
2023/05/13 07:37:03;;;;;;;14.38;7.20;;;;;;;;;;6212644;23;20051;-78
2023/05/13 07:39:29;;;;;;;19.33;7.68;;;;;;;;;;6185653;23;20095;-79
2023/05/13 07:41:54;;;;;;;12.90;6.95;;;;;;;;;;6186246;23;20005;-78
2023/05/13 07:44:20;;;;;;;11.23;6.20;;;;;;;;;;6186161;23;20099;-79
2023/05/13 07:46:46;;;;;;;10.38;6.63;;;;;;;;;;6211049;23;20005;-79
2023/05/13 07:49:12;;;;;;;12.73;6.60;;;;;;;;;;6186747;23;20011;-79
2023/05/13 07:51:37;;;;;;;12.55;6.72;;;;;;;;;;6212193;23;20032;-83
2023/05/13 07:54:03;;;;;;;13.85;6.80;;;;;;;;;;6212296;23;20425;-85
2023/05/13 07:56:29;;;;;;;18.05;7.20;;;;;;;;;;6213866;23;20012;-87
2023/05/13 07:58:54;;;;;;;15.30;7.30;;;;;;;;;;6212768;23;20008;-87
2023/05/13 08:01:20;;;;;;;18.08;6.93;;;;;;;;;;6188018;23;20009;-84
2023/05/13 08:03:45;;;;;;;13.20;6.38;;;;;;;;;;6213209;23;20089;-84
2023/05/13 08:06:11;;;;;;;11.48;6.78;;;;;;;;;;6213651;23;20040;-85
2023/05/13 08:08:39;;;;;;;12.07;6.75;;;;;;;;;;6213520;23;20196;-82
2023/05/13 08:11:04;;;;;;;12.02;6.80;;;;;;;;;;6215613;23;20005;-84
2023/05/13 08:13:30;;;;;;;14.15;6.65;;;;;;;;;;6210445;23;20055;-84
2023/05/13 08:15:58;;;;;;;14.85;6.38;;;;;;;;;;6210890;23;20008;-85
2023/05/13 08:18:24;;;;;;;10.23;6.43;;;;;;;;;;6210736;23;20001;-84
2023/05/13 08:20:49;;;;;;;15.13;6.90;;;;;;;;;;6210272;23;20102;-80
2023/05/13 08:23:15;;;;;;;11.85;7.00;;;;;;;;;;6210578;23;20005;-84
2023/05/13 08:25:40;;;;;;;12.98;6.25;;;;;;;;;;6211731;23;20005;-81
2023/05/13 08:28:06;;;;;;;12.02;6.72;;;;;;;;;;6211383;23;20377;-82
2023/05/13 08:30:31;;;;;;;9.30;6.22;;;;;;;;;;6211426;23;20090;-84
2023/05/13 08:33:03;;;;;;;9.90;6.10;;;;;;;;;;6186692;23;20001;-84
2023/05/13 08:35:29;;;;;;;10.70;6.55;;;;;;;;;;6211713;23;20005;-84
2023/05/13 08:37:54;;;;;;;10.60;6.28;;;;;;;;;;6210492;23;20343;-82
2023/05/13 08:40:20;;;;;;;12.27;6.03;;;;;;;;;;6210956;23;20359;-83
2023/05/13 08:42:46;;;;;;;12.75;6.00;;;;;;;;;;6211329;23;20009;-82
2023/05/13 08:45:11;;;;;;;12.13;6.95;;;;;;;;;;6161995;23;20321;-82
2023/05/13 08:47:55;;;;;;;11.77;6.50;;;;;;;;;;6212191;23;20090;-83
2023/05/13 08:50:21;;;;;;;10.98;6.72;;;;;;;;;;6211647;23;20079;-83
2023/05/13 08:52:48;;;;;;;16.55;6.07;;;;;;;;;;6186335;23;20035;-83
2023/05/13 08:55:13;;;;;;;10.75;6.32;;;;;;;;;;6210402;23;20080;-84
2023/05/13 08:57:39;;;;;;;8.52;5.88;;;;;;;;;;6185601;23;20008;-83
2023/05/13 09:00:05;;;;;;;11.85;6.28;;;;;;;;;;6213164;23;20150;-84
2023/05/13 09:02:30;;;;;;;10.07;6.10;;;;;;;;;;6186476;23;20087;-83
2023/05/13 09:04:56;;;;;;;11.82;5.95;;;;;;;;;;6211143;23;20035;-79
2023/05/13 09:07:21;;;;;;;8.80;6.03;;;;;;;;;;6209614;23;20008;-79
2023/05/13 09:09:47;;;;;;;11.75;5.97;;;;;;;;;;6211299;23;20427;-79
2023/05/13 09:12:50;;;;;;;10.48;5.93;;;;;;;;;;6184328;23;20016;-80
2023/05/13 09:15:22;;;;;;;9.18;5.43;;;;;;;;;;6188160;23;20000;-79
2023/05/13 09:17:57;;;;;;;8.15;5.47;;;;;;;;;;6209589;23;20012;-79
2023/05/13 09:20:24;;;;;;;8.80;5.82;;;;;;;;;;6186429;23;19997;-80
2023/05/13 09:22:51;;;;;;;11.05;5.47;;;;;;;;;;6160590;23;20019;-79
2023/05/13 09:25:18;;;;;;;8.02;5.22;;;;;;;;;;6185159;23;20005;-79
2023/05/13 09:27:47;;;;;;;10.30;5.38;;;;;;;;;;6210796;23;20096;-80
2023/05/13 09:30:12;;;;;;;10.52;5.85;;;;;;;;;;6211054;23;20005;-80
2023/05/13 09:32:38;;;;;;;9.02;5.10;;;;;;;;;;6210935;23;20348;-80
2023/05/13 09:35:17;;;;;;;15.55;5.88;;;;;;;;;;6186719;23;20116;-79
2023/05/13 09:37:46;;;;;;;12.75;5.72;;;;;;;;;;6211282;23;20008;-78
2023/05/13 09:40:13;;;;;;;9.30;5.75;;;;;;;;;;6211619;23;20400;-78
2023/05/13 09:42:43;;;;;;;10.27;5.47;;;;;;;;;;6212392;23;20040;-80
2023/05/13 09:45:09;;;;;;;11.70;5.65;;;;;;;;;;6210684;23;20004;-78
2023/05/13 09:47:35;;;;;;;8.77;6.20;;;;;;;;;;6185407;23;20039;-80
2023/05/13 09:50:01;;;;;;;11.93;5.75;;;;;;;;;;6210053;23;20004;-79
2023/05/13 09:52:29;;;;;;;10.52;5.47;;;;;;;;;;6210278;23;20004;-79
2023/05/13 09:54:58;;;;;;;10.18;5.72;;;;;;;;;;6185115;23;20009;-81
2023/05/13 09:57:26;;;;;;;8.47;5.67;;;;;;;;;;6209383;23;20023;-79
2023/05/13 09:59:58;;;;;;;10.43;5.18;;;;;;;;;;6159536;23;20243;-80
2023/05/13 10:02:24;;;;;;;8.43;4.93;;;;;;;;;;6160360;23;20011;-79
2023/05/13 10:04:50;;;;;;;9.75;5.40;;;;;;;;;;6184347;23;20004;-80
2023/05/13 10:07:15;;;;;;;7.82;5.15;;;;;;;;;;6184910;23;20008;-80
2023/05/13 10:09:41;;;;;;;10.77;4.70;;;;;;;;;;6183960;23;20008;-80
2023/05/13 10:12:07;;;;;;;8.60;4.93;;;;;;;;;;6184135;23;20080;-79
2023/05/13 10:14:34;;;;;;;8.07;5.05;;;;;;;;;;6185279;23;20013;-79
2023/05/13 10:17:00;;;;;;;12.85;4.82;;;;;;;;;;6210806;23;20001;-79
2023/05/13 10:19:25;;;;;;;6.78;4.45;;;;;;;;;;6209821;23;20424;-79
2023/05/13 10:21:51;;;;;;;9.93;4.50;;;;;;;;;;6211271;23;20000;-80
2023/05/13 10:24:17;;;;;;;7.15;4.82;;;;;;;;;;6209964;23;20011;-80
2023/05/13 10:26:42;;;;;;;8.57;4.60;;;;;;;;;;6208943;23;20081;-79
2023/05/13 10:29:09;;;;;;;8.32;4.80;;;;;;;;;;6209493;23;20096;-79
2023/05/13 10:31:34;;;;;;;9.10;4.20;;;;;;;;;;6184320;23;20280;-79
2023/05/13 10:34:00;;;;;;;5.97;4.18;;;;;;;;;;6184381;23;20011;-78
2023/05/13 10:36:46;;;;;;;6.63;3.75;;;;;;;;;;6184663;23;20007;-78
2023/05/13 10:39:24;;;;;;;7.30;4.18;;;;;;;;;;6210893;23;20004;-79
2023/05/13 10:42:01;;;;;;;8.18;4.03;;;;;;;;;;6212131;23;20103;-78
2023/05/13 10:44:27;;;;;;;11.02;3.97;;;;;;;;;;6212466;23;20016;-78
2023/05/13 10:46:55;;;;;;;11.10;4.22;;;;;;;;;;6161001;23;20009;-78
2023/05/13 10:49:21;;;;;;;10.23;3.92;;;;;;;;;;6185979;23;20047;-78
2023/05/13 10:51:48;;;;;;;6.75;4.00;;;;;;;;;;6187147;23;20003;-78
2023/05/13 10:54:20;;;;;;;12.65;4.95;;;;;;;;;;6212632;23;20402;-79
2023/05/13 10:57:00;;;;;;;7.03;3.83;;;;;;;;;;6212764;23;20003;-78
2023/05/13 10:59:29;;;;;;;7.50;4.10;;;;;;;;;;6212842;23;20292;-78
2023/05/13 11:01:54;;;;;;;10.17;3.80;;;;;;;;;;6188776;23;20000;-78
2023/05/13 11:04:20;;;;;;;5.13;3.55;;;;;;;;;;6188095;23;20000;-78
2023/05/13 11:06:46;;;;;;;5.65;3.40;;;;;;;;;;6213912;23;20397;-79
2023/05/13 11:09:13;;;;;;;6.50;3.45;;;;;;;;;;6211842;23;20022;-78
2023/05/13 11:11:39;;;;;;;6.88;3.67;;;;;;;;;;6213559;23;20001;-78
2023/05/13 11:14:07;;;;;;;7.72;3.85;;;;;;;;;;6212380;23;20120;-80
2023/05/13 11:16:33;;;;;;;5.72;3.92;;;;;;;;;;6213934;23;20309;-80
2023/05/13 11:19:00;;;;;;;3.85;3.10;;;;;;;;;;6187766;23;20055;-80
2023/05/13 11:21:29;;;;;;;7.90;3.47;;;;;;;;;;6212857;23;20008;-78
2023/05/13 11:23:57;;;;;;;8.77;3.37;;;;;;;;;;6212233;23;20074;-79
2023/05/13 11:26:22;;;;;;;7.70;3.60;;;;;;;;;;6212327;23;20054;-79
2023/05/13 11:28:57;;;;;;;4.90;3.40;;;;;;;;;;6187649;23;20079;-79
2023/05/13 11:31:22;;;;;;;6.80;3.60;;;;;;;;;;6213960;23;20004;-79
2023/05/13 11:34:12;;;;;;;9.20;3.55;;;;;;;;;;6162624;23;20007;-79
2023/05/13 11:36:44;;;;;;;8.23;3.70;;;;;;;;;;6212278;23;20005;-79
2023/05/13 11:39:12;;;;;;;9.32;3.70;;;;;;;;;;6188354;23;20420;-78
2023/05/13 11:42:05;;;;;;;7.75;3.47;;;;;;;;;;6187838;23;20035;-79
2023/05/13 11:44:31;;;;;;;4.90;3.50;;;;;;;;;;6211414;23;20032;-79
2023/05/13 11:47:00;;;;;;;3.85;2.83;;;;;;;;;;6212516;23;20008;-78
2023/05/13 11:49:38;;;;;;;9.80;3.72;;;;;;;;;;6187463;23;20436;-78
2023/05/13 11:52:11;;;;;;;5.07;3.13;;;;;;;;;;6211999;23;20009;-79
2023/05/13 11:54:44;;;;;;;6.60;3.30;;;;;;;;;;6212629;23;20000;-79
2023/05/13 11:57:32;;;;;;;4.10;3.22;;;;;;;;;;6212477;23;20015;-79
2023/05/13 12:00:03;;;;;;;5.40;3.03;;;;;;;;;;6188248;23;20001;-78
2023/05/13 12:02:29;;;;;;;4.50;2.95;;;;;;;;;;6212512;23;20474;-78
2023/05/13 12:04:57;;;;;;;6.82;3.00;;;;;;;;;;6214754;23;20036;-78
2023/05/13 12:07:25;;;;;;;6.45;3.60;;;;;;;;;;6187279;23;20020;-77
2023/05/13 12:09:52;;;;;;;5.78;2.95;;;;;;;;;;6187336;23;20066;-78
2023/05/13 12:12:17;;;;;;;5.28;3.10;;;;;;;;;;6212512;23;20451;-78
2023/05/13 12:14:45;;;;;;;4.45;3.05;;;;;;;;;;6187426;23;20001;-78
2023/05/13 12:17:13;;;;;;;5.80;3.53;;;;;;;;;;6187512;23;20004;-78
2023/05/13 12:19:40;;;;;;;5.68;3.33;;;;;;;;;;6188009;23;20063;-79
2023/05/13 12:22:06;;;;;;;4.82;3.45;;;;;;;;;;6211528;23;20008;-78
2023/05/13 12:24:32;;;;;;;4.35;3.15;;;;;;;;;;6187680;23;20466;-79
2023/05/13 12:27:07;;;;;;;5.25;2.83;;;;;;;;;;6162296;23;20040;-78
2023/05/13 12:30:13;;;;;;;7.00;3.15;;;;;;;;;;6213856;23;20022;-78
2023/05/13 12:32:48;;;;;;;3.28;2.60;;;;;;;;;;6212557;23;20012;-79
2023/05/13 12:35:13;;;;;;;4.30;3.03;;;;;;;;;;6211988;23;20001;-78
2023/05/13 12:37:39;;;;;;;6.90;3.08;;;;;;;;;;6212401;23;20012;-79
2023/05/13 12:40:11;;;;;;;5.50;3.20;;;;;;;;;;6162605;23;20428;-78
2023/05/13 12:42:37;;;;;;;9.35;3.17;;;;;;;;;;6187485;23;20032;-78
2023/05/13 12:45:02;;;;;;;4.43;3.17;;;;;;;;;;6213167;23;20007;-79
2023/05/13 12:47:28;;;;;;;5.93;3.13;;;;;;;;;;6211957;23;20008;-80
2023/05/13 12:49:54;;;;;;;3.65;2.97;;;;;;;;;;6186642;23;20008;-79
2023/05/13 12:52:20;;;;;;;7.43;3.42;;;;;;;;;;6211923;23;20004;-79
2023/05/13 12:54:46;;;;;;;12.07;3.28;;;;;;;;;;6212150;23;20063;-79
2023/05/13 12:57:11;;;;;;;6.90;3.30;;;;;;;;;;6186961;23;20348;-79
2023/05/13 12:59:37;;;;;;;4.80;3.00;;;;;;;;;;6162040;23;20009;-77
2023/05/13 13:02:03;;;;;;;4.35;2.90;;;;;;;;;;6213950;23;20005;-78
2023/05/13 13:04:29;;;;;;;4.72;3.45;;;;;;;;;;6213195;23;20094;-78
2023/05/13 13:06:55;;;;;;;8.85;3.25;;;;;;;;;;6213376;23;20007;-78
2023/05/13 13:09:20;;;;;;;5.28;3.13;;;;;;;;;;6186813;23;20066;-76
2023/05/13 13:11:46;;;;;;;5.20;3.08;;;;;;;;;;6211784;23;20001;-79
2023/05/13 13:14:12;;;;;;;8.13;3.13;;;;;;;;;;6187053;23;20005;-79
2023/05/13 13:16:37;;;;;;;4.15;3.22;;;;;;;;;;6213291;23;20007;-79
2023/05/13 13:19:02;;;;;;;3.70;2.90;;;;;;;;;;6213301;23;20070;-79
2023/05/13 13:21:28;;;;;;;6.50;2.85;;;;;;;;;;6211622;23;20019;-78
2023/05/13 13:23:53;;;;;;;4.60;3.30;;;;;;;;;;6211670;23;20087;-78
2023/05/13 13:26:21;;;;;;;8.32;3.45;;;;;;;;;;6186501;23;20012;-79
2023/05/13 13:28:47;;;;;;;7.05;3.25;;;;;;;;;;6211939;23;20352;-79
2023/05/13 13:31:13;;;;;;;7.78;3.75;;;;;;;;;;6211544;23;19996;-80
2023/05/13 13:33:39;;;;;;;7.20;3.70;;;;;;;;;;6161547;23;20122;-77
2023/05/13 13:36:04;;;;;;;5.57;3.60;;;;;;;;;;6161630;23;20004;-77
2023/05/13 13:38:30;;;;;;;5.75;3.28;;;;;;;;;;6185203;23;20001;-80
2023/05/13 13:40:55;;;;;;;8.93;3.30;;;;;;;;;;6211697;23;20086;-79
2023/05/13 13:43:21;;;;;;;7.82;3.70;;;;;;;;;;6211401;23;20005;-80
2023/05/13 13:45:46;;;;;;;7.18;3.50;;;;;;;;;;6211450;23;20067;-77
2023/05/13 13:48:12;;;;;;;4.95;3.50;;;;;;;;;;6211065;23;20012;-78
2023/05/13 13:50:37;;;;;;;6.85;3.72;;;;;;;;;;6186475;23;20010;-78
2023/05/13 13:53:03;;;;;;;6.20;3.72;;;;;;;;;;6211711;23;20016;-78
2023/05/13 13:55:28;;;;;;;5.43;4.10;;;;;;;;;;6213115;23;20570;-78
2023/05/13 13:57:54;;;;;;;5.93;3.80;;;;;;;;;;6188224;23;20009;-78
2023/05/13 14:00:19;;;;;;;7.60;4.10;;;;;;;;;;6215287;23;19996;-79
2023/05/13 14:02:44;;;;;;;7.13;4.30;;;;;;;;;;6188253;23;20001;-78
2023/05/13 14:05:10;;;;;;;6.32;3.92;;;;;;;;;;6215628;23;20004;-78
2023/05/13 14:07:36;;;;;;;7.32;4.20;;;;;;;;;;6188403;23;20384;-78
2023/05/13 14:10:03;;;;;;;6.50;4.07;;;;;;;;;;6213229;23;20008;-79
2023/05/13 14:12:28;;;;;;;7.35;4.35;;;;;;;;;;6188333;23;20095;-79
2023/05/13 14:14:53;;;;;;;5.28;3.92;;;;;;;;;;6188437;23;20032;-79
2023/05/13 14:17:19;;;;;;;6.05;4.53;;;;;;;;;;6213183;23;20066;-79
2023/05/13 14:19:45;;;;;;;6.60;4.72;;;;;;;;;;6214738;23;20054;-79
2023/05/13 14:22:10;;;;;;;9.05;4.47;;;;;;;;;;6214783;23;20008;-77
2023/05/13 14:24:35;;;;;;;8.95;5.00;;;;;;;;;;6188740;23;20001;-78
2023/05/13 14:27:01;;;;;;;6.32;4.63;;;;;;;;;;6214920;23;20008;-79